Washington, DC (20530)

8:11 PM EST on March 01, 2015 (GMT -0500)
Logan Circle | Change Station
CLOSE
Current Station
Personal Weather Station
Location: Washington, DC
Elevation: 108 ft
Nearby Weather Stations
Active Advisory: Winter Storm Warning Active Notice: Public Information Statement

Elev 108 ft 38.91 °N, 77.03 °W | Updated 7 seconds ago

Overcast
Overcast
31.3 °F
Feels Like 31 °F
N
0.0
Wind Variable Wind from North
Gusts 0.0 mph

Today
High -- | Low -- °F
--% Chance of Precip.
Yesterday
High -- | Low -- °F
Precip. -- in
6:40 AM 6:00 PM
Waxing Gibbous, 88% visible
Pressure 30.31 in
Visibility 10.0 miles
Clouds Overcast 800 ft
Windchill 31 °F
Dew Point 27 °F
Humidity 84%
Rainfall 0.28 in
Snow Depth Not available.
UV 0 out of 12
Pollen .70 out of 12
Air Quality Not available.
Flu Activity Not available.
METAR KDCA 020052Z 20005KT 10SM -RA OVC008 01/M02 A3031 RMK AO2 SLP262 P0000 T00111017

More Conditions Fewer Conditions

Pressure 30.31 in
Visibility 10.0 miles
Clouds Overcast 800 ft
Windchill 31 °F
Dew Point 27 °F
Humidity 84%
Rainfall 0.28 in
Snow Depth Not available.
UV 0 out of 12
Pollen .70 out of 12
Air Quality Not available.
Flu Activity Not available.
METAR KDCA 020052Z 20005KT 10SM -RA OVC008 01/M02 A3031 RMK AO2 SLP262 P0000 T00111017

More Conditions Fewer Conditions

10-Day Weather Forecast

Almanac

Astronomy

Mar. 01, 2015 Rise Set
Actual Time
Civil Twilight
Nautical Twilight
Astronomical Twilight
Moon
Length of Visible Light
Length of Day
Tomorrow will be .
, % of the Moon is Illuminated

Today's Extremes

State Highs State Lows

Community

WunderPhotos

Upload Photos

1,801,670 photos uploaded!

WunderBlogs® & News

Nearby

Air Quality

  Air Quality AQ Index Pollutant
Not available.

Snow Depth

Station Depth Elevation

Earthquake Activity

City Distance Mag. Time & Date
Minimum magnitude displayed is 2.5.

Coastal Water Temperatures

Place Temperature

Nearby Weather Stations

Winter Storm Warning
Statement as of 6:57 PM EST on March 01, 2015

... Winter Storm Warning remains in effect until 3 am EST Monday...

* locations... Washington metropolitan area... central and
southern Maryland.

* Hazard types... freezing rain.

* Accumulations... ice accumulation around one quarter inch.

* Timing... ice accretion from freezing rain will continue into
late tonight. Precipitation will end as freezing drizzle
tonight.

* Impacts... roads will be icy through tonight. Travelling will
be dangerous.

* Winds... south around 5 to 10 mph.

* Temperatures... in the lower 30s through tonight.

Precautionary/preparedness actions...

A Winter Storm Warning means significant amounts of ice are
expected or occurring.This will make travel very hazardous or
impossible.